Wan Hai 501 — S6AS7 — position and weather

sailwx.info

Track history (hours):
 
Tides and Currents Weather Stations Pressure Air Temp Water Temp Dewpoint Dewpoint Depression Visibility Wind Speed Wind Dir Waves Ship Positions

Wan Hai 501

Last reported at 2015-May-26 11:32 UTC. Time now 2015-May-28 01:54 UTC.
Position N 01°13' E 103°41'.

Length 268 m; draft 11.9 m.

Type: Cargo ship. MMSI: 563382000.

Date/timePositionNaut miles runAvg speedWind from/ knotsBaromVisibWave heightAir tempDewpointWater temp
2015-May-26 11:32N 01°13' E 103°41'6 6.3
2015-May-26 10:32N 01°17' E 103°47'0 0.0
2015-May-26 09:14N 01°17' E 103°47'0 0.0
2015-May-26 08:29N 01°17' E 103°47'0 0.0
2015-May-26 07:23N 01°17' E 103°47'0 0.0
2015-May-26 06:32N 01°17' E 103°47'0 0.0
2015-May-26 05:32N 01°17' E 103°47'0 0.0
2015-May-26 04:32N 01°17' E 103°47'0 0.0
2015-May-26 03:32N 01°17' E 103°47'0 0.0
2015-May-26 02:32N 01°17' E 103°47'0 0.0
2015-May-26 01:14N 01°17' E 103°47'0 0.0
2015-May-26 00:23N 01°17' E 103°47'0 0.0
2015-May-25 23:23N 01°17' E 103°47'0 0.0
2015-May-25 22:20N 01°17' E 103°47'0 0.0
2015-May-25 21:32N 01°17' E 103°47'0 0.0
2015-May-25 20:32N 01°17' E 103°47'0 0.1
2015-May-25 19:28N 01°16' E 103°47'6 7.1
2015-May-25 18:33N 01°13' E 103°52'  
2015-May-21 10:33N 22°12' E 114°10'8 8.3
2015-May-21 09:33N 22°20' E 114°07'1 0.9
2015-May-21 08:31N 22°20' E 114°08'0 0.0
2015-May-21 07:28N 22°20' E 114°08'0 0.0
2015-May-21 06:31N 22°20' E 114°08'0 0.0
2015-May-21 05:31N 22°20' E 114°08'0 0.0
2015-May-21 04:13N 22°20' E 114°08'0 0.0
2015-May-21 03:13N 22°20' E 114°08'0 0.0
2015-May-21 02:28N 22°20' E 114°08'0 0.0
2015-May-21 01:28N 22°20' E 114°08'0 0.0
2015-May-21 00:28N 22°20' E 114°08'0 0.0
2015-May-20 23:25N 22°20' E 114°08'0 0.0
2015-May-20 22:31N 22°20' E 114°08'0 0.0
2015-May-20 21:31N 22°20' E 114°08'0 0.1
2015-May-20 20:33N 22°20' E 114°08'8 6.9
2015-May-20 19:27N 22°13' E 114°10'8 8.5
2015-May-20 18:29N 22°09' E 114°17'1213.0
2015-May-20 17:33N 22°09' E 114°31'12 0.8
2015-May-20 02:22N 22°17' E 114°40'0 0.0
2015-May-20 00:28N 22°17' E 114°40'11712.8
2015-May-19 15:19N 22°46' E 116°44'1213.6
2015-May-19 14:27N 22°52' E 116°55'9014.4
2015-May-19 08:12N 23°45' E 118°14'1115.2
2015-May-19 07:30N 23°52' E 118°22'1415.2
2015-May-19 06:33N 24°02' E 118°34'1615.3
2015-May-19 05:30N 24°12' E 118°47'1515.2
2015-May-19 04:32N 24°22' E 118°59'1514.7
2015-May-19 03:30N 24°33' E 119°12'1414.3
2015-May-19 02:31N 24°42' E 119°23'32214.0
2015-May-18 03:27N 29°21' E 122°24'1413.6
2015-May-18 02:28N 29°34' E 122°26'8 9.1
2015-May-18 01:33N 29°42' E 122°24'1111.5
2015-May-18 00:33N 29°49' E 122°14'7 6.6
2015-May-17 23:32N 29°49' E 122°06'0 0.2
2015-May-17 22:31N 29°48' E 122°06'0 0.1
2015-May-17 21:32N 29°48' E 122°06'0 0.1
2015-May-17 20:32N 29°48' E 122°06'5 5.4
2015-May-17 19:33N 29°46' E 122°00'0 0.0
2015-May-17 18:11N 29°46' E 122°00'0 0.0
2015-May-17 16:11N 29°46' E 122°00'  
Track history (hours):
 
Tides and Currents Weather Stations Pressure Air Temp Water Temp Dewpoint Dewpoint Depression Visibility Wind Speed Wind Dir Waves Ship Positions

Wan Hai 501

Last reported at 2015-May-26 11:32 UTC. Time now 2015-May-28 01:54 UTC.
Position N 01°13' E 103°41'.

Length 268 m; draft 11.9 m.

Type: Cargo ship. MMSI: 563382000.

Date/timePositionNaut miles runAvg speedWind from/ knotsBaromVisibWave heightAir tempDewpointWater temp
2015-May-26 11:32N 01°13' E 103°41'6 6.3
2015-May-26 10:32N 01°17' E 103°47'0 0.0
2015-May-26 09:14N 01°17' E 103°47'0 0.0
2015-May-26 08:29N 01°17' E 103°47'0 0.0
2015-May-26 07:23N 01°17' E 103°47'0 0.0
2015-May-26 06:32N 01°17' E 103°47'0 0.0
2015-May-26 05:32N 01°17' E 103°47'0 0.0
2015-May-26 04:32N 01°17' E 103°47'0 0.0
2015-May-26 03:32N 01°17' E 103°47'0 0.0
2015-May-26 02:32N 01°17' E 103°47'0 0.0
2015-May-26 01:14N 01°17' E 103°47'0 0.0
2015-May-26 00:23N 01°17' E 103°47'0 0.0
2015-May-25 23:23N 01°17' E 103°47'0 0.0
2015-May-25 22:20N 01°17' E 103°47'0 0.0
2015-May-25 21:32N 01°17' E 103°47'0 0.0
2015-May-25 20:32N 01°17' E 103°47'0 0.1
2015-May-25 19:28N 01°16' E 103°47'6 7.1
2015-May-25 18:33N 01°13' E 103°52'  
2015-May-21 10:33N 22°12' E 114°10'8 8.3
2015-May-21 09:33N 22°20' E 114°07'1 0.9
2015-May-21 08:31N 22°20' E 114°08'0 0.0
2015-May-21 07:28N 22°20' E 114°08'0 0.0
2015-May-21 06:31N 22°20' E 114°08'0 0.0
2015-May-21 05:31N 22°20' E 114°08'0 0.0
2015-May-21 04:13N 22°20' E 114°08'0 0.0
2015-May-21 03:13N 22°20' E 114°08'0 0.0
2015-May-21 02:28N 22°20' E 114°08'0 0.0
2015-May-21 01:28N 22°20' E 114°08'0 0.0
2015-May-21 00:28N 22°20' E 114°08'0 0.0
2015-May-20 23:25N 22°20' E 114°08'0 0.0
2015-May-20 22:31N 22°20' E 114°08'0 0.0
2015-May-20 21:31N 22°20' E 114°08'0 0.1
2015-May-20 20:33N 22°20' E 114°08'8 6.9
2015-May-20 19:27N 22°13' E 114°10'8 8.5
2015-May-20 18:29N 22°09' E 114°17'1213.0
2015-May-20 17:33N 22°09' E 114°31'12 0.8
2015-May-20 02:22N 22°17' E 114°40'0 0.0
2015-May-20 00:28N 22°17' E 114°40'11712.8
2015-May-19 15:19N 22°46' E 116°44'1213.6
2015-May-19 14:27N 22°52' E 116°55'9014.4
2015-May-19 08:12N 23°45' E 118°14'1115.2
2015-May-19 07:30N 23°52' E 118°22'1415.2
2015-May-19 06:33N 24°02' E 118°34'1615.3
2015-May-19 05:30N 24°12' E 118°47'1515.2
2015-May-19 04:32N 24°22' E 118°59'1514.7
2015-May-19 03:30N 24°33' E 119°12'1414.3
2015-May-19 02:31N 24°42' E 119°23'32214.0
2015-May-18 03:27N 29°21' E 122°24'1413.6
2015-May-18 02:28N 29°34' E 122°26'8 9.1
2015-May-18 01:33N 29°42' E 122°24'1111.5
2015-May-18 00:33N 29°49' E 122°14'7 6.6
2015-May-17 23:32N 29°49' E 122°06'0 0.2
2015-May-17 22:31N 29°48' E 122°06'0 0.1
2015-May-17 21:32N 29°48' E 122°06'0 0.1
2015-May-17 20:32N 29°48' E 122°06'5 5.4
2015-May-17 19:33N 29°46' E 122°00'0 0.0
2015-May-17 18:11N 29°46' E 122°00'0 0.0
2015-May-17 16:11N 29°46' E 122°00'  

Dump ship's entire track history